Data for 01/07/2014

Time Sea-Level Adjusted Pressure Absolute Pressure Temperature Relative Humidity Dew Point   
(mb) (inHg) (mb) (inHg) (C) (F) (%) (C) (F)
00:05 1019 30.09 849 25.07 -4.4 24.1 66 -9.7 14.5
00:10 1019 30.09 849 25.07 -5 23 70 -9.6 14.8
00:15 1019 30.09 849 25.07 -5.6 22 71 -10.1 13.8
00:20 1019 30.09 848 25.04 -5.4 22.2 69 -10.3 13.4
00:25 1019 30.09 848 25.04 -5.1 22.9 71 -9.6 14.7
00:30 1019 30.09 848 25.04 -5.1 22.8 69 -9.9 14.2
00:35 1019 30.09 848 25.04 -5 23.1 66 -10.5 13.2
00:40 1019 30.09 848 25.04 -4.7 23.5 67 -9.9 14.2
00:45 1019 30.09 848 25.04 -4.7 23.6 69 -9.5 15
00:50 1019 30.09 848 25.04 -4.5 23.9 68 -9.6 14.8
00:55 1019 30.09 848 25.04 -4.3 24.2 68 -9.3 15.3
01:00 1019 30.09 848 25.04 -4.5 23.9 70 -9.3 15.3
01:05 1019 30.09 848 25.04 -4.6 23.8 69 -9.4 15.2
01:10 1019 30.09 848 25.04 -4.5 23.8 68 -9.6 14.8
01:15 1019 30.09 848 25.04 -4.4 24.1 69 -9.3 15.2
01:20 1019 30.09 848 25.04 -4.3 24.3 70 -9 15.9
01:25 1019 30.09 848 25.04 -4.2 24.4 69 -9 15.8
01:30 1019 30.09 848 25.04 -4.2 24.4 69 -9 15.8
01:35 1019 30.09 848 25.04 -4.3 24.3 70 -9 15.7
01:40 1018 30.06 848 25.04 -4.3 24.3 67 -9.5 14.8
01:45 1018 30.06 848 25.04 -4.4 24.1 68 -9.4 15.1
01:50 1018 30.06 848 25.04 -4.4 24.2 66 -9.7 14.5
01:55 1018 30.06 847 25.01 -4.5 23.8 68 -9.6 14.6
02:00 1018 30.06 847 25.01 -4.6 23.7 66 -10.1 13.8
02:05 1018 30.06 847 25.01 -4.7 23.6 70 -9.4 15.1
02:10 1018 30.06 847 25.01 -4.6 23.7 67 -9.8 14.3
02:15 1018 30.06 847 25.01 -4.5 24 68 -9.6 14.8
02:20 1018 30.06 847 25.01 -4.4 24.1 67 -9.6 14.7
02:25 1018 30.06 847 25.01 -4.5 23.9 70 -9.2 15.5
02:30 1018 30.06 847 25.01 -4.7 23.5 72 -9.1 15.6
02:35 1018 30.06 847 25.01 -5 23 72 -9.2 15.4
02:40 1018 30.06 847 25.01 -4.9 23.1 71 -9.4 15.1
02:45 1018 30.06 847 25.01 -4.8 23.4 71 -9.3 15.2
02:50 1018 30.06 847 25.01 -4.7 23.6 70 -9.3 15.3
02:55 1018 30.06 847 25.01 -4.6 23.6 69 -9.5 14.9
03:00 1018 30.06 847 25.01 -4.7 23.6 70 -9.3 15.2
03:05 1018 30.06 847 25.01 -4.8 23.4 71 -9.3 15.2
03:10 1018 30.06 847 25.01 -4.7 23.5 70 -9.4 15.1
03:15 1018 30.06 847 25.01 -4.7 23.6 72 -9 15.7
03:20 1018 30.06 847 25.01 -4.6 23.7 72 -8.9 15.9
03:25 1018 30.06 847 25.01 -4.7 23.5 73 -8.9 16
03:30 1018 30.06 847 25.01 -5 23.1 73 -9.1 15.6
03:35 1018 30.06 847 25.01 -5 23 73 -9.1 15.6
03:40 1018 30.06 847 25.01 -4.9 23.1 73 -9.1 15.5
03:45 1018 30.06 847 25.01 -4.9 23.2 72 -9.2 15.5
03:50 1018 30.06 847 25.01 -4.8 23.3 73 -8.9 15.9
03:55 1018 30.06 847 25.01 -4.8 23.3 74 -8.9 16
04:00 1018 30.06 847 25.01 -4.8 23.3 73 -8.9 15.9
04:05 1018 30.06 847 25.01 -4.8 23.4 74 -8.8 16.1
04:10 1018 30.06 847 25.01 -4.7 23.5 73 -8.8 16.2
04:15 1018 30.06 847 25.01 -4.7 23.6 74 -8.7 16.3
04:20 1018 30.06 847 25.01 -4.7 23.5 72 -9 15.9
04:25 1018 30.06 847 25.01 -4.6 23.7 71 -9.1 15.6
04:30 1018 30.06 847 25.01 -4.6 23.7 70 -9.2 15.4
04:35 1018 30.06 847 25.01 -4.5 23.9 68 -9.5 14.8
04:40 1018 30.06 847 25.01 -4.4 24.2 67 -9.5 14.9
04:45 1018 30.06 847 25.01 -4.2 24.4 65 -9.7 14.5
04:50 1018 30.06 847 25.01 -4 24.7 65 -9.6 14.7
04:55 1018 30.06 847 25.01 -4 24.8 65 -9.7 14.6
05:00 1018 30.06 847 25.01 -4 24.8 65 -9.6 14.7
05:05 1018 30.06 847 25.01 -4 24.9 66 -9.5 15
05:10 1018 30.06 847 25.01 -4.1 24.6 69 -8.9 15.9
05:15 1018 30.06 847 25.01 -4.4 24 71 -9 15.9
05:20 1018 30.06 847 25.01 -4.6 23.8 72 -9 15.9
05:25 1018 30.06 847 25.01 -4.6 23.6 71 -9.1 15.6
05:30 1018 30.06 847 25.01 -4.5 23.9 72 -8.9 16
05:35 1018 30.06 847 25.01 -4.5 24 72 -8.9 16.1
05:40 1018 30.06 847 25.01 -4.4 24 70 -9.1 15.6
05:45 1018 30.06 847 25.01 -4.2 24.4 70 -8.9 16
05:50 1018 30.06 847 25.01 -4.3 24.3 70 -8.9 16
05:55 1018 30.06 847 25.01 -4.3 24.3 71 -8.8 16.1
06:00 1018 30.06 847 25.01 -4.2 24.4 71 -8.7 16.3
06:05 1018 30.06 847 25.01 -4.3 24.3 71 -8.8 16.1
06:10 1017 30.03 847 25.01 -4.2 24.4 71 -8.7 16.4
06:15 1017 30.03 847 25.01 -4.3 24.3 70 -8.9 16
06:20 1017 30.03 847 25.01 -4.2 24.5 70 -8.8 16.1
06:25 1017 30.03 847 25.01 -4.3 24.3 71 -8.8 16.2
06:30 1017 30.03 847 25.01 -4.2 24.4 71 -8.7 16.3
06:35 1017 30.03 847 25.01 -4.1 24.6 70 -8.8 16.1
06:40 1017 30.03 846 24.98 -4 24.7 70 -8.7 16.3
06:45 1017 30.03 847 25.01 -4 24.7 70 -8.8 16.2
06:50 1017 30.03 847 25.01 -4 24.8 70 -8.7 16.4
06:55 1017 30.03 847 25.01 -4 24.7 70 -8.7 16.4
07:00 1017 30.03 847 25.01 -4 24.7 71 -8.6 16.5
07:05 1017 30.03 847 25.01 -4.1 24.7 71 -8.6 16.5
07:10 1017 30.03 847 25.01 -4.2 24.5 72 -8.5 16.7
07:15 1017 30.03 847 25.01 -4.2 24.4 72 -8.6 16.6
07:20 1017 30.03 847 25.01 -4.3 24.3 72 -8.6 16.5
07:25 1017 30.03 847 25.01 -4.3 24.3 72 -8.6 16.6
07:30 1017 30.03 847 25.01 -4.2 24.4 72 -8.5 16.7
07:35 1017 30.03 847 25.01 -4.2 24.4 72 -8.5 16.7
07:40 1018 30.06 847 25.01 -4.1 24.5 72 -8.4 16.8
07:45 1018 30.06 847 25.01 -4.1 24.7 72 -8.3 17
07:50 1018 30.06 847 25.01 -4.1 24.7 72 -8.5 16.7
07:55 1018 30.06 847 25.01 -3.9 25 71 -8.5 16.7
08:00 1017 30.03 847 25.01 -3.8 25.2 69 -8.7 16.3
08:05 1017 30.03 847 25.01 -3.6 25.5 70 -8.4 17
08:10 1017 30.03 847 25.01 -3.9 24.9 74 -7.9 17.8
08:15 1017 30.03 847 25.01 -4.2 24.4 74 -8.2 17.3
08:20 1017 30.03 847 25.01 -4.1 24.6 75 -7.9 17.7
08:25 1017 30.03 847 25.01 -4.1 24.6 75 -7.9 17.8
08:30 1017 30.03 847 25.01 -4.1 24.7 74 -8 17.6
08:35 1017 30.03 847 25.01 -4.1 24.6 74 -8.1 17.4
08:40 1017 30.03 847 25.01 -4 24.8 75 -7.8 18
08:45 1017 30.03 846 24.98 -4.2 24.5 73 -8.3 17.1
08:50 1017 30.03 846 24.98 -4.2 24.5 76 -7.8 18
08:55 1017 30.03 846 24.98 -4.2 24.4 75 -8 17.7
09:00 1017 30.03 846 24.98 -3.9 25.1 74 -7.8 18
09:05 1017 30.03 847 25.01 -3.7 25.3 73 -8 17.7
09:10 1017 30.03 847 25.01 -3.6 25.5 73 -7.8 18
09:15 1017 30.03 847 25.01 -3.5 25.8 74 -7.4 18.7
09:20 1017 30.03 847 25.01 -3.6 25.5 73 -7.8 17.9
09:25 1017 30.03 847 25.01 -3.6 25.6 72 -8 17.7
09:30 1018 30.06 847 25.01 -3.5 25.6 74 -7.5 18.5
09:35 1018 30.06 847 25.01 -3.7 25.4 76 -7.3 18.9
09:40 1018 30.06 847 25.01 -3.9 25 77 -7.4 18.6
09:45 1018 30.06 847 25.01 -4 24.8 76 -7.6 18.3
09:50 1018 30.06 847 25.01 -3.8 25.1 75 -7.7 18.2
09:55 1018 30.06 847 25.01 -3.7 25.3 76 -7.4 18.6
10:00 1018 30.06 847 25.01 -3.7 25.4 74 -7.6 18.3
10:05 1018 30.06 847 25.01 -3.5 25.7 73 -7.6 18.3
10:10 1018 30.06 847 25.01 -3.4 25.9 73 -7.5 18.4
10:15 1018 30.06 847 25.01 -3.2 26.2 72 -7.6 18.4
10:20 1018 30.06 847 25.01 -3.2 26.2 73 -7.4 18.6
10:25 1018 30.06 847 25.01 -3.1 26.4 73 -7.3 18.9
10:30 1018 30.06 847 25.01 -3.2 26.3 73 -7.3 18.9
10:35 1018 30.06 847 25.01 -3.1 26.4 72 -7.5 18.5
10:40 1018 30.06 847 25.01 -2.9 26.8 72 -7.3 18.9
10:45 1018 30.06 847 25.01 -2.8 26.9 73 -7.1 19.3
10:50 1018 30.06 847 25.01 -2.9 26.9 71 -7.4 18.6
10:55 1018 30.06 847 25.01 -2.7 27.1 71 -7.2 19
11:00 1018 30.06 847 25.01 -2.8 27 70 -7.5 18.6
11:05 1018 30.06 847 25.01 -2.8 27 73 -7 19.3
11:10 1018 30.06 847 25.01 -2.7 27.1 71 -7.3 18.8
11:15 1018 30.06 847 25.01 -2.5 27.5 71 -7 19.3
11:20 1018 30.06 847 25.01 -2.2 28 65 -7.9 17.8
11:25 1018 30.06 848 25.04 -2 28.4 68 -7.2 19
11:30 1018 30.06 848 25.04 -2.1 28.2 68 -7.1 19.1
11:35 1018 30.06 848 25.04 -2.1 28.2 70 -6.9 19.7
11:40 1018 30.06 848 25.04 -2.2 28.1 72 -6.5 20.2
11:45 1018 30.06 848 25.04 -2.5 27.6 73 -6.7 20
11:50 1018 30.06 848 25.04 -2.4 27.7 75 -6.3 20.6
11:55 1018 30.06 848 25.04 -2.3 27.9 78 -5.5 22
12:00 1018 30.06 848 25.04 -2.2 28 82 -4.9 23.1
12:05 1018 30.06 848 25.04 -2.3 27.8 84 -4.7 23.6
12:10 1018 30.06 848 25.04 -2.3 27.9 86 -4.3 24.2
12:15 1018 30.06 847 25.01 -1.7 28.9 85 -3.9 24.9
12:20 1018 30.06 847 25.01 -1.2 29.8 82 -3.9 25
12:25 1018 30.06 847 25.01 -1.3 29.6 84 -3.7 25.3
12:30 1018 30.06 847 25.01 -1.4 29.5 85 -3.6 25.5
12:35 1018 30.06 847 25.01 -1.4 29.4 86 -3.5 25.7
12:40 1018 30.06 847 25.01 -1.4 29.4 86 -3.5 25.6
12:45 1018 30.06 847 25.01 -1.5 29.3 86 -3.6 25.5
12:50 1018 30.06 847 25.01 -1.5 29.3 86 -3.5 25.7
12:55 1018 30.06 847 25.01 -1.5 29.4 86 -3.4 25.8
13:00 1018 30.06 847 25.01 -1.2 29.8 85 -3.5 25.8
13:05 1017 30.03 847 25.01 -0.9 30.3 84 -3.3 26
13:10 1017 30.03 847 25.01 -0.8 30.5 84 -3.1 26.3
13:15 1017 30.03 846 24.98 -0.8 30.5 84 -3.2 26.2
13:20 1017 30.03 846 24.98 -0.9 30.5 84 -3.2 26.2
13:25 1017 30.03 846 24.98 -0.7 30.8 83 -3.2 26.2
13:30 1017 30.03 846 24.98 -0 31.9 79 -3.2 26.2
13:35 1017 30.03 846 24.98 -0 31.9 81 -2.9 26.7
13:40 1017 30.03 846 24.98 -0.3 31.5 81 -3.2 26.3
13:45 1017 30.03 846 24.98 -0.2 31.7 80 -3.2 26.2
13:50 1017 30.03 846 24.98 -0.2 31.7 81 -3.1 26.4
13:55 1017 30.03 846 24.98 -0.5 31.2 82 -3.1 26.4
14:00 1017 30.03 846 24.98 -0.6 31 82 -3.3 26.1
14:05 1017 30.03 846 24.98 -0.7 30.8 82 -3.3 26
14:10 1017 30.03 846 24.98 -0.5 31.1 82 -3.3 26.1
14:15 1017 30.03 846 24.98 -0.4 31.3 81 -3.3 26.1
14:20 1017 30.03 846 24.98 -0.5 31.2 81 -3.3 26
14:25 1017 30.03 846 24.98 -0.4 31.3 81 -3.2 26.3
14:30 1017 30.03 846 24.98 -0.4 31.4 80 -3.4 25.9
14:35 1017 30.03 846 24.98 0.1 32.2 78 -3.2 26.2
14:40 1017 30.03 846 24.98 0.3 32.6 76 -3.3 26
14:45 1017 30.03 846 24.98 0.9 33.6 74 -3.3 26.1
14:50 1017 30.03 846 24.98 1.3 34.4 71 -3.3 26
14:55 1017 30.03 846 24.98 2.1 35.8 67 -3.3 26
15:00 1016 30 846 24.98 2.5 36.5 66 -3.1 26.4
15:05 1017 30.03 846 24.98 3.1 37.6 65 -2.9 26.7
15:10 1017 30.03 846 24.98 3.2 37.8 65 -2.8 27
15:15 1017 30.03 846 24.98 2.8 37.1 65 -3.1 26.4
15:20 1017 30.03 846 24.98 2.6 36.6 63 -3.8 25.2
15:25 1017 30.03 846 24.98 2.3 36.1 64 -3.8 25.1
15:30 1017 30.03 846 24.98 1.8 35.3 67 -3.7 25.3
15:35 1017 30.03 846 24.98 1.8 35.3 66 -4 24.9
15:40 1017 30.03 846 24.98 1.9 35.5 66 -3.8 25.1
15:45 1017 30.03 846 24.98 1.9 35.4 66 -3.8 25.2
15:50 1017 30.03 846 24.98 1.8 35.3 65 -3.9 24.9
15:55 1017 30.03 846 24.98 1.9 35.4 65 -4.1 24.7
16:00 1017 30.03 846 24.98 1.7 35.1 66 -4 24.9
16:05 1017 30.03 846 24.98 1.3 34.4 67 -4.1 24.7
16:10 1017 30.03 846 24.98 1.1 33.9 67 -4.4 24.1
16:15 1017 30.03 846 24.98 0.9 33.6 68 -4.3 24.2
16:20 1017 30.03 846 24.98 0.9 33.6 70 -4 24.8
16:25 1017 30.03 846 24.98 0.7 33.2 71 -4 24.8
16:30 1017 30.03 846 24.98 0.3 32.6 74 -3.8 25.2
16:35 1017 30.03 846 24.98 0 32 78 -3.4 26
16:40 1017 30.03 846 24.98 -0.1 31.8 79 -3.4 26
16:45 1017 30.03 846 24.98 -0.1 31.9 79 -3.3 26.1
16:50 1017 30.03 846 24.98 -0.2 31.7 78 -3.5 25.7
16:55 1017 30.03 846 24.98 -0.1 31.8 79 -3.3 26
17:00 1017 30.03 846 24.98 -0.1 31.8 79 -3.3 26
17:05 1017 30.03 846 24.98 -0.1 31.8 79 -3.3 26.1
17:10 1017 30.03 846 24.98 -0.1 31.9 79 -3.3 26
17:15 1017 30.03 846 24.98 -0 32 79 -3.2 26.2
17:20 1017 30.03 846 24.98 0.1 32.2 78 -3.2 26.2
17:25 1017 30.03 846 24.98 0.3 32.5 77 -3.3 26.1
17:30 1017 30.03 846 24.98 0.4 32.7 78 -3.1 26.5
17:35 1017 30.03 846 24.98 0.4 32.7 77 -3.1 26.4
17:40 1017 30.03 846 24.98 0.4 32.7 78 -3.1 26.5
17:45 1017 30.03 846 24.98 0.4 32.7 78 -3 26.6
17:50 1017 30.03 846 24.98 0.2 32.4 79 -3 26.7
17:55 1017 30.03 846 24.98 0.1 32.2 80 -3 26.6
18:00 1017 30.03 846 24.98 0.2 32.4 79 -3 26.7
18:05 1017 30.03 846 24.98 0.1 32.3 80 -2.9 26.7
18:10 1017 30.03 846 24.98 -0 32 81 -2.9 26.7
18:15 1017 30.03 846 24.98 -0 31.9 81 -2.9 26.7
18:20 1017 30.03 846 24.98 -0.2 31.6 82 -3 26.6
18:25 1017 30.03 846 24.98 -0.2 31.7 80 -3.2 26.2
18:30 1017 30.03 846 24.98 0 32 80 -3.1 26.4
18:35 1017 30.03 846 24.98 -0.1 31.9 80 -3.1 26.5
18:40 1017 30.03 846 24.98 -0.2 31.7 80 -3.2 26.2
18:45 1017 30.03 846 24.98 -0.2 31.6 80 -3.3 26.1
18:50 1017 30.03 846 24.98 -0.3 31.5 80 -3.2 26.2
18:55 1017 30.03 846 24.98 -0.3 31.5 80 -3.3 26.1
19:00 1017 30.03 846 24.98 -0.2 31.7 79 -3.3 26
19:05 1017 30.03 846 24.98 -0.1 31.8 78 -3.4 25.8
19:10 1017 30.03 846 24.98 0 32.1 78 -3.3 26
19:15 1017 30.03 846 24.98 0.1 32.1 79 -3.2 26.2
19:20 1017 30.03 846 24.98 -0.1 31.9 80 -3.1 26.4
19:25 1017 30.03 846 24.98 -0.2 31.7 81 -3.1 26.4
19:30 1017 30.03 846 24.98 -0.5 31.2 82 -3.2 26.2
19:35 1017 30.03 846 24.98 -0.6 31 82 -3.2 26.2
19:40 1017 30.03 846 24.98 -0.7 30.8 83 -3.3 26.1
19:45 1017 30.03 846 24.98 -0.8 30.6 83 -3.3 26.1
19:50 1017 30.03 846 24.98 -0.7 30.8 83 -3.3 26.1
19:55 1017 30.03 846 24.98 -0.6 31 82 -3.3 26.1
20:00 1017 30.03 846 24.98 -0.6 31 82 -3.2 26.2
20:05 1017 30.03 846 24.98 -0.5 31 82 -3.2 26.2
20:10 1017 30.03 846 24.98 -0.5 31 82 -3.2 26.3
20:15 1017 30.03 846 24.98 -0.4 31.2 81 -3.3 26
20:20 1017 30.03 846 24.98 -0.4 31.3 81 -3.2 26.2
20:25 1017 30.03 846 24.98 -0.4 31.2 81 -3.2 26.2
20:30 1017 30.03 846 24.98 -0.5 31 83 -3.1 26.4
20:35 1017 30.03 846 24.98 -0.7 30.8 83 -3.2 26.2
20:40 1017 30.03 846 24.98 -0.6 30.8 83 -3.3 26.1
20:45 1017 30.03 846 24.98 -0.6 30.8 82 -3.3 26.1
20:50 1017 30.03 846 24.98 -0.5 31 82 -3.2 26.3
20:55 1017 30.03 846 24.98 -0.6 30.9 83 -3.2 26.2
21:00 1017 30.03 846 24.98 -0.6 30.9 82 -3.3 26.1
21:05 1017 30.03 846 24.98 -0.6 31 83 -3 26.5
21:10 1017 30.03 846 24.98 -0.5 31.1 83 -3.1 26.4
21:15 1017 30.03 846 24.98 -0.4 31.3 81 -3.3 26.1
21:20 1017 30.03 846 24.98 -0.3 31.5 81 -3.2 26.2
21:25 1017 30.03 846 24.98 -0.3 31.5 82 -3.1 26.4
21:30 1017 30.03 846 24.98 -0.4 31.3 82 -3.1 26.4
21:35 1017 30.03 846 24.98 -0.4 31.3 79 -3.5 25.7
21:40 1017 30.03 846 24.98 -0.3 31.5 79 -3.4 25.9
21:45 1017 30.03 846 24.98 -0.3 31.5 81 -3.2 26.2
21:50 1017 30.03 846 24.98 -0.4 31.2 80 -3.6 25.6
21:55 1017 30.03 846 24.98 -0.5 31.1 79 -3.6 25.5
22:00 1017 30.03 846 24.98 -0.4 31.2 78 -3.8 25.1
22:05 1017 30.03 846 24.98 -0.4 31.2 79 -3.7 25.4
22:10 1017 30.03 846 24.98 -0.5 31.1 79 -3.6 25.5
22:15 1017 30.03 846 24.98 -0.5 31 77 -4.1 24.6
22:20 1017 30.03 846 24.98 -0.6 30.9 78 -3.9 24.9
22:25 1016 30 846 24.98 -0.6 30.9 75 -4.5 24
22:30 1017 30.03 846 24.98 -0.4 31.3 73 -4.7 23.5
22:35 1017 30.03 846 24.98 -0.2 31.6 73 -4.6 23.8
22:40 1017 30.03 846 24.98 -0.2 31.7 73 -4.5 23.8
22:45 1017 30.03 846 24.98 -0.2 31.7 72 -4.5 23.8
22:50 1016 30 846 24.98 -0.1 31.8 71 -4.7 23.5
22:55 1016 30 846 24.98 -0.1 31.9 71 -4.7 23.5
23:00 1016 30 846 24.98 -0.1 31.9 71 -4.8 23.4
23:05 1016 30 846 24.98 -0 31.9 69 -5 23
23:10 1016 30 846 24.98 0.1 32.1 69 -4.9 23.1
23:15 1016 30 845 24.95 0.1 32.2 68 -5.1 22.8
23:20 1016 30 845 24.95 0.2 32.4 66 -5.5 22.2
23:25 1016 30 845 24.95 0.3 32.5 65 -5.5 22.2
23:30 1016 30 845 24.95 0.3 32.5 66 -5.3 22.4
23:35 1016 30 845 24.95 0.1 32.2 73 -4.1 24.6
23:40 1016 30 845 24.95 -0.4 31.4 74 -4.4 24.1
23:45 1016 30 845 24.95 -0.7 30.8 78 -4.1 24.6
23:50 1016 30 846 24.98 -0.8 30.5 79 -4 24.9
23:55 1016 30 845 24.95 -0.9 30.4 79 -4.1 24.7
24:00 1016 30 845 24.95 -0.9 30.4 79 -4.2 24.5